Time;durP1;ratioP1;P1;durP2;ratioP2;P2;SDS_P1;SDS_P2;PMS_P1;PMS_P2;Temp;Humidity;BMP_temperature;BMP_pressure;BME280_temperature;BME280_humidity;BME280_pressure;Samples;Min_cycle;Max_cycle;Signal;HPM_P1;HPM_P2
2023/12/09 00:00:38;;;;;;;0.80;0.70;;;7.30;99.90;;;;;;5073164;28;20194;-78
2023/12/09 00:03:08;;;;;;;0.73;0.73;;;7.30;99.90;;;;;;5073457;28;20739;-79
2023/12/09 00:05:34;;;;;;;13.13;2.20;;;7.30;99.90;;;;;;5073131;28;20190;-79
2023/12/09 00:08:01;;;;;;;3.60;1.50;;;7.20;99.90;;;;;;5072870;28;20190;-77
2023/12/09 00:10:28;;;;;;;0.70;0.60;;;7.20;99.90;;;;;;5072885;28;20190;-77
2023/12/09 00:12:55;;;;;;;1.88;1.80;;;7.20;99.90;;;;;;5073102;28;20210;-80
2023/12/09 00:15:21;;;;;;;2.60;2.50;;;7.10;99.90;;;;;;5073904;28;20195;-79
2023/12/09 00:17:48;;;;;;;0.98;0.98;;;7.10;99.90;;;;;;5072965;28;20252;-79
2023/12/09 00:20:16;;;;;;;0.70;0.70;;;7.10;99.90;;;;;;5073160;28;20195;-79
2023/12/09 00:22:43;;;;;;;0.40;0.40;;;7.20;99.90;;;;;;5072684;28;20585;-78
2023/12/09 00:25:10;;;;;;;0.40;0.40;;;7.20;99.90;;;;;;5073335;28;20216;-78
2023/12/09 00:27:37;;;;;;;8.48;2.97;;;7.10;99.90;;;;;;5072822;28;20190;-79
2023/12/09 00:30:05;;;;;;;2.47;0.90;;;7.10;99.90;;;;;;5072940;28;20198;-78
2023/12/09 00:32:32;;;;;;;2.70;1.48;;;7.10;99.90;;;;;;5073095;28;20214;-77
2023/12/09 00:35:00;;;;;;;2.00;1.90;;;7.10;99.90;;;;;;5073484;28;20198;-78
2023/12/09 00:37:28;;;;;;;0.40;0.40;;;7.10;99.90;;;;;;5072907;28;20268;-77
2023/12/09 00:39:55;;;;;;;0.50;0.50;;;7.10;99.90;;;;;;5064550;28;20597;-80
2023/12/09 00:42:22;;;;;;;0.70;0.70;;;7.10;99.90;;;;;;5073032;28;20325;-80
2023/12/09 00:44:49;;;;;;;0.40;0.30;;;7.10;99.90;;;;;;5072182;28;20685;-79
2023/12/09 00:47:16;;;;;;;0.40;0.40;;;7.10;99.90;;;;;;5072524;28;20653;-80
2023/12/09 00:49:42;;;;;;;2.80;2.60;;;7.10;99.90;;;;;;5072183;28;20195;-79
2023/12/09 00:52:11;;;;;;;0.40;0.40;;;7.10;99.90;;;;;;5072599;28;20197;-80
2023/12/09 00:54:39;;;;;;;1.15;0.80;;;7.10;99.90;;;;;;5072654;28;20202;-79
2023/12/09 00:57:06;;;;;;;2.05;1.95;;;7.20;99.90;;;;;;5072404;28;20567;-79
2023/12/09 00:59:33;;;;;;;4.35;2.83;;;7.20;99.90;;;;;;5071794;28;20198;-77
2023/12/09 01:02:00;;;;;;;0.50;0.50;;;7.20;99.90;;;;;;5071852;28;20194;-78
2023/12/09 01:04:26;;;;;;;0.40;0.40;;;7.20;99.90;;;;;;5072967;28;20195;-79
2023/12/09 01:06:53;;;;;;;1.65;1.30;;;7.20;99.90;;;;;;5068874;28;20570;-78
2023/12/09 01:09:20;;;;;;;2.50;1.42;;;7.20;99.90;;;;;;5058275;28;20198;-78
2023/12/09 01:11:48;;;;;;;2.30;2.10;;;7.20;99.90;;;;;;5071708;28;20199;-79
2023/12/09 01:14:15;;;;;;;0.60;0.60;;;7.10;99.90;;;;;;5071925;28;20214;-79
2023/12/09 01:16:42;;;;;;;0.93;0.93;;;7.10;99.90;;;;;;5071622;28;20221;-79
2023/12/09 01:19:08;;;;;;;2.53;1.73;;;7.10;99.90;;;;;;5071560;28;20197;-78
2023/12/09 01:21:35;;;;;;;0.40;0.40;;;7.10;99.90;;;;;;5071063;28;20194;-79
2023/12/09 01:24:02;;;;;;;0.50;0.50;;;7.10;99.90;;;;;;5067790;28;20211;-79
2023/12/09 01:26:29;;;;;;;0.40;0.40;;;7.00;99.90;;;;;;5067387;28;20290;-79
2023/12/09 01:28:59;;;;;;;2.15;2.05;;;7.00;99.90;;;;;;5070811;28;20190;-79
2023/12/09 01:31:26;;;;;;;2.38;1.88;;;7.00;99.90;;;;;;5070716;28;20195;-79
2023/12/09 01:33:53;;;;;;;0.65;0.60;;;7.00;99.90;;;;;;5070468;28;20706;-79
2023/12/09 01:36:19;;;;;;;1.10;1.10;;;6.90;99.90;;;;;;5065027;28;20835;-79
2023/12/09 01:38:46;;;;;;;0.40;0.40;;;6.90;99.90;;;;;;5068613;28;20218;-79
2023/12/09 01:41:13;;;;;;;0.50;0.45;;;7.00;99.90;;;;;;5070965;28;20201;-78
2023/12/09 01:43:40;;;;;;;0.73;0.73;;;7.00;99.90;;;;;;5070544;28;20218;-80
2023/12/09 01:46:10;;;;;;;1.08;1.00;;;7.10;99.90;;;;;;5066893;28;20191;-79
2023/12/09 01:48:38;;;;;;;0.85;0.85;;;7.10;99.90;;;;;;5067271;28;20248;-78
2023/12/09 01:51:06;;;;;;;3.35;1.45;;;7.00;99.90;;;;;;5058677;28;20215;-76
2023/12/09 01:53:35;;;;;;;10.60;1.23;;;7.00;99.90;;;;;;5066742;28;20721;-79
2023/12/09 01:56:04;;;;;;;0.50;0.50;;;7.00;99.90;;;;;;5070719;28;20198;-79
2023/12/09 01:58:31;;;;;;;0.40;0.40;;;7.00;99.90;;;;;;5070466;28;20214;-79
2023/12/09 02:00:58;;;;;;;1.73;0.88;;;6.90;99.90;;;;;;5071512;28;20198;-80
2023/12/09 02:03:26;;;;;;;1.25;1.15;;;6.90;99.90;;;;;;5074538;28;20740;-80
2023/12/09 02:05:53;;;;;;;0.40;0.40;;;6.90;99.90;;;;;;5074017;28;20198;-79
2023/12/09 02:08:20;;;;;;;0.73;0.73;;;6.90;99.90;;;;;;5074639;28;20217;-79
2023/12/09 02:10:54;;;;;;;0.65;0.65;;;6.80;99.90;;;;;;5073896;28;20709;-80
2023/12/09 02:13:26;;;;;;;0.90;0.90;;;6.90;99.90;;;;;;5074646;28;20218;-79
2023/12/09 02:16:01;;;;;;;1.10;1.08;;;6.80;99.90;;;;;;5074354;28;20203;-80
2023/12/09 02:18:30;;;;;;;1.27;1.17;;;6.80;99.90;;;;;;5065993;28;20210;-79
2023/12/09 02:20:57;;;;;;;4.80;3.40;;;6.80;99.90;;;;;;5063079;28;20585;-80
2023/12/09 02:23:25;;;;;;;0.40;0.40;;;6.70;99.90;;;;;;5054520;28;20221;-80
2023/12/09 02:25:56;;;;;;;0.93;0.63;;;6.70;99.90;;;;;;5072264;28;20745;-79
2023/12/09 02:28:28;;;;;;;0.50;0.50;;;6.70;99.90;;;;;;5079595;28;20190;-80
2023/12/09 02:31:00;;;;;;;0.40;0.40;;;6.70;99.90;;;;;;5078116;28;20275;-80
2023/12/09 02:33:29;;;;;;;2.28;0.82;;;6.70;99.90;;;;;;5071492;28;20231;-80
2023/12/09 02:35:56;;;;;;;0.82;0.82;;;6.70;99.90;;;;;;5059756;28;20613;-80
2023/12/09 02:38:27;;;;;;;0.50;0.50;;;6.70;99.90;;;;;;5077689;28;20286;-81
2023/12/09 02:40:54;;;;;;;0.65;0.65;;;6.70;99.90;;;;;;5077321;28;20565;-80
2023/12/09 02:43:21;;;;;;;0.70;0.70;;;6.70;99.90;;;;;;5071998;28;20272;-80
2023/12/09 02:45:48;;;;;;;1.25;1.15;;;6.70;99.90;;;;;;5066269;28;20692;-81
2023/12/09 02:48:15;;;;;;;5.07;3.03;;;6.70;99.90;;;;;;5077389;28;20191;-81
2023/12/09 02:50:41;;;;;;;0.73;0.73;;;6.70;99.90;;;;;;5077141;28;20191;-80
2023/12/09 02:53:08;;;;;;;0.60;0.60;;;6.70;99.90;;;;;;5057433;28;20221;-80
2023/12/09 02:55:36;;;;;;;4.22;1.70;;;6.70;99.90;;;;;;5064544;28;20198;-80
2023/12/09 02:58:03;;;;;;;0.82;0.82;;;6.70;99.90;;;;;;5076263;28;20218;-80
2023/12/09 03:00:30;;;;;;;1.60;1.00;;;6.70;99.90;;;;;;5077314;28;20202;-80
2023/12/09 03:02:57;;;;;;;0.40;0.40;;;6.70;99.90;;;;;;5058179;28;20329;-79
2023/12/09 03:05:23;;;;;;;0.98;0.98;;;6.70;99.90;;;;;;5064413;28;20199;-80
2023/12/09 03:07:50;;;;;;;6.68;1.25;;;6.70;99.90;;;;;;5064601;28;20193;-79
2023/12/09 03:10:17;;;;;;;0.40;0.40;;;6.60;99.90;;;;;;5060887;28;20257;-80
2023/12/09 03:12:45;;;;;;;0.63;0.60;;;6.70;99.90;;;;;;5068626;28;20211;-80
2023/12/09 03:15:12;;;;;;;2.67;0.88;;;6.60;99.90;;;;;;5060458;28;20191;-80
2023/12/09 03:17:39;;;;;;;0.98;0.95;;;6.60;99.90;;;;;;5068076;28;20878;-80
2023/12/09 03:20:08;;;;;;;0.60;0.60;;;6.60;99.90;;;;;;5065254;28;20203;-78
2023/12/09 03:22:35;;;;;;;0.93;0.93;;;6.60;99.90;;;;;;5065283;28;20215;-80
2023/12/09 03:25:02;;;;;;;0.88;0.88;;;6.60;99.90;;;;;;5066945;28;20206;-79
2023/12/09 03:27:29;;;;;;;0.40;0.40;;;6.60;99.90;;;;;;5068407;28;20194;-80
2023/12/09 03:29:57;;;;;;;0.80;0.80;;;6.50;99.90;;;;;;5066027;28;20238;-80
2023/12/09 03:32:24;;;;;;;0.50;0.50;;;6.50;99.90;;;;;;5064242;28;20207;-80
2023/12/09 03:34:51;;;;;;;2.15;2.00;;;6.50;99.90;;;;;;5065137;28;20194;-82
2023/12/09 03:37:17;;;;;;;0.57;0.57;;;6.50;99.90;;;;;;5068260;28;20197;-80
2023/12/09 03:39:44;;;;;;;0.40;0.40;;;6.50;99.90;;;;;;5067523;28;20198;-79
2023/12/09 03:42:11;;;;;;;0.40;0.40;;;6.50;99.90;;;;;;5064248;28;20202;-79
2023/12/09 03:44:37;;;;;;;0.40;0.40;;;6.40;99.90;;;;;;5064362;28;20198;-78
2023/12/09 03:47:06;;;;;;;13.68;1.00;;;6.40;99.90;;;;;;5072494;28;20190;-77
2023/12/09 03:49:32;;;;;;;0.40;0.40;;;6.50;99.90;;;;;;5064162;28;20187;-80
2023/12/09 03:51:59;;;;;;;2.08;1.10;;;6.50;99.90;;;;;;5065128;28;20199;-78
2023/12/09 03:54:26;;;;;;;0.77;0.77;;;6.50;99.90;;;;;;5067316;28;20722;-79
2023/12/09 03:56:53;;;;;;;0.85;0.77;;;6.50;99.90;;;;;;5067066;28;20202;-78
2023/12/09 03:59:20;;;;;;;0.70;0.70;;;6.50;99.90;;;;;;5063673;28;20207;-78
2023/12/09 04:01:48;;;;;;;0.60;0.60;;;6.40;99.90;;;;;;5063990;28;20195;-80
2023/12/09 04:04:17;;;;;;;0.40;0.40;;;6.40;99.90;;;;;;5067436;28;20213;-81
2023/12/09 04:06:44;;;;;;;6.63;1.13;;;6.40;99.90;;;;;;5068045;28;20261;-78
2023/12/09 04:09:11;;;;;;;0.60;0.60;;;6.40;99.90;;;;;;5064584;28;20290;-79
2023/12/09 04:11:38;;;;;;;0.40;0.40;;;6.40;99.90;;;;;;5063735;28;20194;-80
2023/12/09 04:14:05;;;;;;;0.50;0.50;;;6.50;99.90;;;;;;5065726;28;20241;-78
2023/12/09 04:16:32;;;;;;;1.75;1.65;;;6.40;99.90;;;;;;5067545;28;20193;-79
2023/12/09 04:18:58;;;;;;;1.88;1.77;;;6.40;99.90;;;;;;5065601;28;20218;-79
2023/12/09 04:21:27;;;;;;;0.50;0.50;;;6.50;99.90;;;;;;5063553;28;20191;-79
2023/12/09 04:23:54;;;;;;;1.10;0.93;;;6.40;99.90;;;;;;5063609;28;20262;-80
2023/12/09 04:26:20;;;;;;;0.40;0.40;;;6.50;99.90;;;;;;5063764;28;20215;-79
2023/12/09 04:28:47;;;;;;;1.27;0.75;;;6.40;99.90;;;;;;5070944;28;20197;-78
2023/12/09 04:31:14;;;;;;;1.15;1.15;;;6.50;99.90;;;;;;5066930;28;20197;-79
2023/12/09 04:33:44;;;;;;;3.35;2.53;;;6.50;99.90;;;;;;5066841;28;20206;-79
2023/12/09 04:36:11;;;;;;;1.35;1.25;;;6.50;99.90;;;;;;5066789;28;20191;-79
2023/12/09 04:38:39;;;;;;;1.63;0.88;;;6.50;99.90;;;;;;5066546;28;20274;-79
2023/12/09 04:41:06;;;;;;;0.50;0.50;;;6.60;99.90;;;;;;5065200;28;20199;-79
2023/12/09 04:43:33;;;;;;;3.00;1.15;;;6.60;99.90;;;;;;5063583;28;20207;-79
2023/12/09 04:46:00;;;;;;;4.53;0.70;;;6.70;99.90;;;;;;5063898;28;20215;-77
2023/12/09 04:48:27;;;;;;;0.40;0.40;;;6.70;99.90;;;;;;5071122;28;20546;-78
2023/12/09 04:50:53;;;;;;;5.97;0.85;;;6.70;99.90;;;;;;5062985;28;20206;-80
2023/12/09 04:53:20;;;;;;;5.22;0.98;;;6.70;99.90;;;;;;5058314;28;20272;-79
2023/12/09 04:55:48;;;;;;;1.00;0.50;;;6.80;99.90;;;;;;5066800;28;20195;-78
2023/12/09 04:58:15;;;;;;;0.68;0.68;;;6.80;99.90;;;;;;5066158;28;20213;-79
2023/12/09 05:00:42;;;;;;;2.25;0.82;;;6.80;99.90;;;;;;5066431;28;20194;-79
2023/12/09 05:03:09;;;;;;;0.75;0.75;;;6.80;99.90;;;;;;5064806;28;20214;-78
2023/12/09 05:05:35;;;;;;;0.80;0.50;;;6.90;99.90;;;;;;5063564;28;20193;-78
2023/12/09 05:08:03;;;;;;;1.13;0.85;;;6.90;99.90;;;;;;5071221;28;20201;-78
2023/12/09 05:10:30;;;;;;;1.02;0.65;;;6.90;99.90;;;;;;5062998;28;20278;-78
2023/12/09 05:12:58;;;;;;;0.50;0.50;;;6.90;99.90;;;;;;5070968;28;20218;-78
2023/12/09 05:15:25;;;;;;;0.40;0.38;;;6.90;99.90;;;;;;5066996;28;20202;-79
2023/12/09 05:17:51;;;;;;;11.05;0.82;;;6.80;99.90;;;;;;5066659;28;20257;-78
2023/12/09 05:20:18;;;;;;;1.13;0.82;;;6.80;99.90;;;;;;5065841;28;20191;-78
2023/12/09 05:22:46;;;;;;;0.50;0.50;;;6.80;99.90;;;;;;5066692;28;20214;-78
2023/12/09 05:25:14;;;;;;;1.00;1.00;;;6.70;99.90;;;;;;5067684;28;20194;-80
2023/12/09 05:27:41;;;;;;;0.68;0.68;;;6.70;99.90;;;;;;5066880;28;20194;-80
2023/12/09 05:30:10;;;;;;;4.13;1.67;;;6.60;99.90;;;;;;5066373;28;20202;-79
2023/12/09 05:32:37;;;;;;;0.40;0.40;;;6.60;99.90;;;;;;5068278;28;20296;-81
2023/12/09 05:35:04;;;;;;;0.55;0.55;;;6.60;99.90;;;;;;5075988;28;20916;-81
2023/12/09 05:37:31;;;;;;;0.50;0.50;;;6.50;99.90;;;;;;5071874;28;20187;-81
2023/12/09 05:39:58;;;;;;;0.40;0.40;;;6.50;99.90;;;;;;5071696;28;20222;-81
2023/12/09 05:42:25;;;;;;;0.95;0.95;;;6.50;99.90;;;;;;5068575;28;20215;-80
2023/12/09 05:44:52;;;;;;;9.73;0.88;;;6.50;99.90;;;;;;5075911;28;20201;-81
2023/12/09 05:47:20;;;;;;;0.57;0.57;;;6.50;99.90;;;;;;5068728;28;20196;-81
2023/12/09 05:49:47;;;;;;;1.73;1.63;;;6.50;99.90;;;;;;5067873;28;20187;-81
2023/12/09 05:52:14;;;;;;;0.95;0.63;;;6.40;99.90;;;;;;5070316;28;20281;-79
2023/12/09 05:54:40;;;;;;;1.95;1.83;;;6.40;99.90;;;;;;5071357;28;20317;-81
2023/12/09 05:57:07;;;;;;;0.70;0.70;;;6.30;99.90;;;;;;5071500;28;20565;-81
2023/12/09 05:59:34;;;;;;;0.40;0.40;;;6.30;99.90;;;;;;5071494;28;20210;-81
2023/12/09 06:02:01;;;;;;;1.17;1.13;;;6.20;99.90;;;;;;5071307;28;20240;-81
2023/12/09 06:04:29;;;;;;;0.88;0.68;;;6.30;99.90;;;;;;5070551;28;20192;-80
2023/12/09 06:06:56;;;;;;;0.95;0.60;;;6.20;99.90;;;;;;5070174;28;20264;-80
2023/12/09 06:09:23;;;;;;;1.17;0.85;;;6.20;99.90;;;;;;5072981;28;20197;-80
2023/12/09 06:11:49;;;;;;;0.50;0.50;;;6.20;99.90;;;;;;5074899;28;20195;-81
2023/12/09 06:14:17;;;;;;;2.30;1.52;;;6.20;99.90;;;;;;5071709;28;20215;-79
2023/12/09 06:16:43;;;;;;;0.40;0.40;;;6.20;99.90;;;;;;5081208;28;20190;-81
2023/12/09 06:19:10;;;;;;;2.10;1.95;;;6.20;99.90;;;;;;5071448;28;20213;-79
2023/12/09 06:21:38;;;;;;;0.95;0.85;;;6.20;99.90;;;;;;5068902;28;20566;-81
2023/12/09 06:24:06;;;;;;;0.50;0.50;;;6.20;99.90;;;;;;5070384;28;20225;-81
2023/12/09 06:26:32;;;;;;;0.40;0.40;;;6.20;99.90;;;;;;5072584;28;20650;-81
2023/12/09 06:28:59;;;;;;;1.10;1.10;;;6.20;99.90;;;;;;5072633;28;20222;-81
2023/12/09 06:31:26;;;;;;;0.52;0.52;;;6.20;99.90;;;;;;5068950;28;20191;-81
2023/12/09 06:33:53;;;;;;;0.75;0.75;;;6.20;99.90;;;;;;5076129;28;20222;-81
2023/12/09 06:36:19;;;;;;;0.57;0.57;;;6.20;99.90;;;;;;5072880;28;20195;-81
2023/12/09 06:38:47;;;;;;;0.40;0.40;;;6.30;99.90;;;;;;5072375;28;20210;-81
2023/12/09 06:41:14;;;;;;;5.18;1.60;;;6.30;99.90;;;;;;5078710;28;20196;-81
2023/12/09 06:43:41;;;;;;;3.03;1.92;;;6.30;99.90;;;;;;5069117;28;20212;-81
2023/12/09 06:46:08;;;;;;;1.10;0.60;;;6.30;99.90;;;;;;5068813;28;20195;-81
2023/12/09 06:48:37;;;;;;;2.05;1.20;;;6.40;99.90;;;;;;5069693;28;20202;-81
2023/12/09 06:51:06;;;;;;;2.70;0.63;;;6.40;99.90;;;;;;5068454;28;20206;-81
2023/12/09 06:53:33;;;;;;;0.90;0.60;;;6.40;99.90;;;;;;5064180;28;20288;-79
2023/12/09 06:56:01;;;;;;;0.65;0.55;;;6.40;99.90;;;;;;5071244;28;20202;-78
2023/12/09 06:58:28;;;;;;;6.72;2.72;;;6.50;99.90;;;;;;5068409;28;20210;-80
2023/12/09 07:00:55;;;;;;;1.77;1.40;;;6.50;99.90;;;;;;5074620;28;20194;-80
2023/12/09 07:03:22;;;;;;;0.45;0.43;;;6.50;99.90;;;;;;5070983;28;20211;-81
2023/12/09 07:05:49;;;;;;;0.50;0.40;;;6.50;99.90;;;;;;5071208;28;20208;-81
2023/12/09 07:08:15;;;;;;;0.77;0.77;;;6.50;99.90;;;;;;5077275;28;20190;-79
2023/12/09 07:10:44;;;;;;;0.82;0.82;;;6.60;99.90;;;;;;5076993;28;20286;-77
2023/12/09 07:13:13;;;;;;;0.43;0.40;;;6.60;99.90;;;;;;5067966;28;20686;-81
2023/12/09 07:15:40;;;;;;;0.50;0.50;;;6.60;99.90;;;;;;5070114;28;20187;-81
2023/12/09 07:18:07;;;;;;;1.48;1.38;;;6.70;99.90;;;;;;5069412;28;20190;-81
2023/12/09 07:20:34;;;;;;;0.40;0.40;;;6.60;99.90;;;;;;5060790;28;20722;-81
2023/12/09 07:23:00;;;;;;;1.25;0.70;;;6.70;99.90;;;;;;5070205;28;20276;-81
2023/12/09 07:25:28;;;;;;;0.40;0.40;;;6.70;99.90;;;;;;5068230;28;20195;-80
2023/12/09 07:27:55;;;;;;;0.70;0.70;;;6.70;99.90;;;;;;5070839;28;20690;-80
2023/12/09 07:30:23;;;;;;;0.50;0.50;;;6.70;99.90;;;;;;5072044;28;20685;-81
2023/12/09 07:32:50;;;;;;;0.50;0.40;;;6.70;99.90;;;;;;5068871;28;20218;-81
2023/12/09 07:35:18;;;;;;;0.43;0.43;;;6.70;99.90;;;;;;5067555;28;20202;-81
2023/12/09 07:37:44;;;;;;;1.08;0.73;;;6.70;99.90;;;;;;5065236;28;20191;-81
2023/12/09 07:40:12;;;;;;;0.60;0.60;;;6.70;99.90;;;;;;5065276;28;20298;-80
2023/12/09 07:42:39;;;;;;;0.50;0.50;;;6.80;99.90;;;;;;5068576;28;20268;-81
2023/12/09 07:45:07;;;;;;;0.88;0.82;;;6.80;99.90;;;;;;5068998;28;20190;-81
2023/12/09 07:47:35;;;;;;;2.15;1.25;;;6.80;99.90;;;;;;5065924;28;20562;-81
2023/12/09 07:50:02;;;;;;;0.50;0.40;;;6.90;99.90;;;;;;5065204;28;20324;-81
2023/12/09 07:52:29;;;;;;;0.50;0.43;;;6.90;99.90;;;;;;5066957;28;20215;-81
2023/12/09 07:54:56;;;;;;;0.60;0.52;;;6.90;99.90;;;;;;5068549;28;20205;-81
2023/12/09 07:57:23;;;;;;;2.05;0.40;;;7.00;99.90;;;;;;5068261;28;20195;-81
2023/12/09 07:59:50;;;;;;;0.85;0.85;;;7.00;99.90;;;;;;5067647;28;20214;-78
2023/12/09 08:02:16;;;;;;;3.92;0.80;;;7.10;99.90;;;;;;5068244;28;20305;-81
2023/12/09 08:04:44;;;;;;;0.40;0.40;;;7.10;99.90;;;;;;5068420;28;20197;-80
2023/12/09 08:07:11;;;;;;;0.70;0.50;;;7.20;99.90;;;;;;5068046;28;20214;-80
2023/12/09 08:09:38;;;;;;;0.50;0.40;;;7.30;99.90;;;;;;5067623;28;20187;-80
2023/12/09 08:12:06;;;;;;;2.55;1.00;;;7.30;99.90;;;;;;5067515;28;20620;-80
2023/12/09 08:14:32;;;;;;;0.50;0.50;;;7.30;99.90;;;;;;5065124;28;20290;-81
2023/12/09 08:17:00;;;;;;;4.30;0.63;;;7.30;99.90;;;;;;5071296;28;20205;-81
2023/12/09 08:19:26;;;;;;;0.45;0.40;;;7.40;99.90;;;;;;5065763;28;20221;-80
2023/12/09 08:21:54;;;;;;;2.75;1.00;;;7.50;99.90;;;;;;5064102;28;20197;-81
2023/12/09 08:24:21;;;;;;;0.70;0.50;;;7.50;99.90;;;;;;5065309;28;20199;-81
2023/12/09 08:26:48;;;;;;;0.82;0.77;;;7.40;99.90;;;;;;5068101;28;20263;-80
2023/12/09 08:29:15;;;;;;;4.22;2.80;;;7.40;99.90;;;;;;5067632;28;20197;-81
2023/12/09 08:31:42;;;;;;;0.93;0.82;;;7.40;99.90;;;;;;5067731;28;20277;-81
2023/12/09 08:34:09;;;;;;;0.40;0.40;;;7.40;99.90;;;;;;5067580;28;20217;-80
2023/12/09 08:36:35;;;;;;;2.92;1.15;;;7.40;99.90;;;;;;5067990;28;20197;-81
2023/12/09 08:39:04;;;;;;;0.50;0.50;;;7.40;99.90;;;;;;5067037;28;20215;-80
2023/12/09 08:41:30;;;;;;;0.50;0.50;;;7.40;99.90;;;;;;5064847;28;20600;-81
2023/12/09 08:43:57;;;;;;;10.57;1.40;;;7.40;99.90;;;;;;5070183;28;20282;-81
2023/12/09 08:46:24;;;;;;;0.50;0.50;;;7.50;99.90;;;;;;5066180;28;20198;-80
2023/12/09 08:48:51;;;;;;;0.85;0.65;;;7.50;99.90;;;;;;5062179;28;20567;-80
2023/12/09 08:51:17;;;;;;;0.50;0.50;;;7.50;99.90;;;;;;5062390;28;20570;-79
2023/12/09 08:53:44;;;;;;;0.50;0.40;;;7.50;99.90;;;;;;5065490;28;20229;-79
2023/12/09 08:56:12;;;;;;;0.95;0.95;;;7.50;99.90;;;;;;5066117;28;20202;-80
2023/12/09 08:58:39;;;;;;;0.60;0.40;;;7.60;99.90;;;;;;5062575;28;20674;-78
2023/12/09 09:01:06;;;;;;;0.60;0.60;;;7.60;99.90;;;;;;5061917;28;20694;-80
2023/12/09 09:03:33;;;;;;;0.50;0.50;;;7.60;99.90;;;;;;5064496;28;20223;-81
2023/12/09 09:06:00;;;;;;;22.70;2.15;;;7.60;99.90;;;;;;5065701;28;20662;-79
2023/12/09 09:08:27;;;;;;;7.55;1.15;;;7.70;99.90;;;;;;5063885;28;20554;-79
2023/12/09 09:10:54;;;;;;;4.50;2.80;;;7.70;99.90;;;;;;5065020;28;20194;-80
2023/12/09 09:13:22;;;;;;;0.75;0.75;;;7.70;99.90;;;;;;5066410;28;20215;-78
2023/12/09 09:15:50;;;;;;;0.73;0.70;;;7.80;99.90;;;;;;5069563;28;20220;-79
2023/12/09 09:18:17;;;;;;;1.02;0.93;;;7.90;99.90;;;;;;5069220;28;20195;-79
2023/12/09 09:20:43;;;;;;;0.50;0.40;;;8.00;99.90;;;;;;5061658;28;20574;-80
2023/12/09 09:23:10;;;;;;;0.50;0.50;;;8.10;99.90;;;;;;5068893;28;20236;-80
2023/12/09 09:25:37;;;;;;;0.70;0.50;;;8.10;99.90;;;;;;5067571;28;20197;-81
2023/12/09 09:28:04;;;;;;;0.50;0.40;;;8.20;99.90;;;;;;5072519;28;20201;-79
2023/12/09 09:30:32;;;;;;;0.60;0.50;;;8.20;99.90;;;;;;5066833;28;20205;-80
2023/12/09 09:32:59;;;;;;;0.70;0.50;;;8.30;99.90;;;;;;5066179;28;20219;-79
2023/12/09 09:35:26;;;;;;;0.52;0.50;;;8.20;99.90;;;;;;5066760;28;20219;-79
2023/12/09 09:37:53;;;;;;;0.85;0.75;;;8.20;99.90;;;;;;5068845;28;20194;-80
2023/12/09 09:40:20;;;;;;;0.50;0.50;;;8.20;99.90;;;;;;5068924;28;20214;-80
2023/12/09 09:42:56;;;;;;;1.90;1.10;;;8.20;99.90;;;;;;5070277;28;20218;-79
2023/12/09 09:45:24;;;;;;;0.70;0.70;;;8.40;99.90;;;;;;5069464;28;20193;-81
2023/12/09 09:47:54;;;;;;;0.90;0.63;;;8.70;99.90;;;;;;5065714;28;20195;-80
2023/12/09 09:50:23;;;;;;;3.13;2.92;;;8.90;99.90;;;;;;5065031;28;20191;-78
2023/12/09 09:52:51;;;;;;;1.00;0.57;;;9.10;99.90;;;;;;5068733;28;20720;-79
2023/12/09 09:55:19;;;;;;;2.05;0.80;;;9.30;99.90;;;;;;5068504;28;20256;-79
2023/12/09 09:57:46;;;;;;;2.63;1.10;;;9.40;99.90;;;;;;5068397;28;20205;-79
2023/12/09 10:00:15;;;;;;;1.50;1.08;;;9.40;99.90;;;;;;5068382;28;20309;-79
2023/12/09 10:02:44;;;;;;;1.20;1.20;;;9.20;99.90;;;;;;5066104;28;20230;-78
2023/12/09 10:05:14;;;;;;;2.88;0.88;;;9.00;99.90;;;;;;5065080;28;20599;-78
2023/12/09 10:07:41;;;;;;;0.50;0.50;;;8.90;99.90;;;;;;5067527;28;20654;-78
2023/12/09 10:10:09;;;;;;;1.25;1.15;;;8.80;99.90;;;;;;5067792;28;20194;-78
2023/12/09 10:12:36;;;;;;;0.60;0.60;;;8.60;99.90;;;;;;5068160;28;20215;-78
2023/12/09 10:15:04;;;;;;;1.67;0.50;;;8.50;99.90;;;;;;5067909;28;20202;-79
2023/12/09 10:17:31;;;;;;;4.13;1.35;;;8.50;99.90;;;;;;5067517;28;20194;-78
2023/12/09 10:19:58;;;;;;;1.98;1.88;;;8.40;99.90;;;;;;5064580;28;20696;-79
2023/12/09 10:22:27;;;;;;;2.85;0.85;;;8.40;99.90;;;;;;5063621;28;20222;-79
2023/12/09 10:24:55;;;;;;;1.85;0.65;;;8.30;99.90;;;;;;5068152;28;20201;-80
2023/12/09 10:27:22;;;;;;;0.60;0.45;;;8.30;99.90;;;;;;5068021;28;20193;-79
2023/12/09 10:29:49;;;;;;;0.75;0.75;;;8.30;99.90;;;;;;5072859;28;20198;-78
2023/12/09 10:32:17;;;;;;;0.50;0.50;;;8.30;99.90;;;;;;5064655;28;21650;-79
2023/12/09 10:34:44;;;;;;;0.70;0.70;;;8.30;99.90;;;;;;5067102;28;20196;-77
2023/12/09 10:37:10;;;;;;;0.60;0.60;;;8.20;99.90;;;;;;5067347;28;20520;-77
2023/12/09 10:39:43;;;;;;;1.15;1.05;;;8.20;99.90;;;;;;5067205;28;20210;-78
2023/12/09 10:42:10;;;;;;;0.60;0.57;;;8.30;99.90;;;;;;5067652;28;20601;-78
2023/12/09 10:44:37;;;;;;;1.10;0.75;;;8.30;99.90;;;;;;5065602;28;20561;-80
2023/12/09 10:47:04;;;;;;;0.50;0.40;;;8.30;99.90;;;;;;5064129;28;20191;-77
2023/12/09 10:49:31;;;;;;;8.73;1.92;;;8.40;99.90;;;;;;5064989;28;20198;-79
2023/12/09 10:51:58;;;;;;;3.05;1.23;;;8.30;99.90;;;;;;5067203;28;20566;-79
2023/12/09 10:54:25;;;;;;;0.50;0.50;;;8.40;99.90;;;;;;5067298;28;20202;-78
2023/12/09 10:56:53;;;;;;;12.15;1.48;;;8.40;99.90;;;;;;5059154;28;20186;-81
2023/12/09 10:59:20;;;;;;;6.63;1.15;;;8.40;99.90;;;;;;5067254;28;20186;-79
2023/12/09 11:01:48;;;;;;;4.70;1.70;;;8.40;99.90;;;;;;5063688;28;20575;-79
2023/12/09 11:04:15;;;;;;;8.68;1.02;;;8.40;99.90;;;;;;5067526;28;20211;-80
2023/12/09 11:06:45;;;;;;;1.90;1.20;;;8.50;99.90;;;;;;5067063;28;20191;-79
2023/12/09 11:09:14;;;;;;;2.88;2.15;;;8.50;99.90;;;;;;5067239;28;20201;-79
2023/12/09 11:11:42;;;;;;;0.77;0.50;;;8.50;99.90;;;;;;5066519;28;20191;-80
2023/12/09 11:14:11;;;;;;;7.32;2.20;;;8.50;99.90;;;;;;5066542;28;20213;-80
2023/12/09 11:16:42;;;;;;;0.90;0.70;;;8.50;99.90;;;;;;5066441;28;20190;-78
2023/12/09 11:19:15;;;;;;;4.13;1.10;;;8.50;99.90;;;;;;5066113;28;20190;-79
2023/12/09 11:21:44;;;;;;;3.83;1.08;;;8.50;99.90;;;;;;5064549;28;20214;-80
2023/12/09 11:24:12;;;;;;;2.08;1.05;;;8.50;99.90;;;;;;5068413;28;20701;-80
2023/12/09 11:26:41;;;;;;;0.70;0.60;;;8.60;99.90;;;;;;5065277;28;20198;-78
2023/12/09 11:29:09;;;;;;;0.80;0.80;;;8.60;99.90;;;;;;5062253;28;20686;-78
2023/12/09 11:31:39;;;;;;;0.50;0.40;;;8.60;99.90;;;;;;5063228;28;20429;-79
2023/12/09 11:34:07;;;;;;;0.70;0.70;;;8.70;99.90;;;;;;5064718;28;20211;-80
2023/12/09 11:36:36;;;;;;;7.00;1.95;;;8.60;99.90;;;;;;5064738;28;20191;-80
2023/12/09 11:39:06;;;;;;;13.03;1.37;;;8.60;99.90;;;;;;5062372;28;20701;-78
2023/12/09 11:41:34;;;;;;;3.22;1.77;;;8.60;99.90;;;;;;5062910;28;20473;-79
2023/12/09 11:44:02;;;;;;;2.30;1.10;;;8.70;99.90;;;;;;5065288;28;20716;-76
2023/12/09 11:46:30;;;;;;;8.03;1.73;;;8.60;99.90;;;;;;5064896;28;20782;-79
2023/12/09 11:48:58;;;;;;;5.18;1.48;;;8.60;99.90;;;;;;5056602;28;20432;-79
2023/12/09 11:51:25;;;;;;;5.65;1.33;;;8.60;99.90;;;;;;5064750;28;20191;-78
2023/12/09 11:53:54;;;;;;;10.23;0.80;;;8.60;99.90;;;;;;5062183;28;20233;-80
2023/12/09 11:56:21;;;;;;;2.83;1.17;;;8.60;99.90;;;;;;5060970;28;20195;-79
2023/12/09 11:58:48;;;;;;;1.73;0.70;;;8.60;99.90;;;;;;5062308;28;20437;-80
2023/12/09 12:01:14;;;;;;;3.83;1.20;;;8.60;99.90;;;;;;5063769;28;20594;-79
2023/12/09 12:03:41;;;;;;;0.50;0.40;;;8.60;99.90;;;;;;5063394;28;20465;-80
2023/12/09 12:06:10;;;;;;;0.50;0.50;;;8.70;99.90;;;;;;5063772;28;20441;-79
2023/12/09 12:08:37;;;;;;;1.00;0.50;;;8.70;99.90;;;;;;5062814;28;20441;-80
2023/12/09 12:11:04;;;;;;;0.90;0.77;;;8.70;99.90;;;;;;5060002;28;20894;-79
2023/12/09 12:13:33;;;;;;;0.50;0.45;;;8.70;99.90;;;;;;5059974;28;20716;-79
2023/12/09 12:16:00;;;;;;;4.20;0.80;;;8.60;99.90;;;;;;5060460;28;20726;-80
2023/12/09 12:18:28;;;;;;;6.45;1.60;;;8.60;99.90;;;;;;5060904;28;20222;-80
2023/12/09 12:20:55;;;;;;;2.25;0.88;;;8.60;99.90;;;;;;5063664;28;20212;-80
2023/12/09 12:23:23;;;;;;;0.50;0.40;;;8.60;99.90;;;;;;5059212;28;20653;-81
2023/12/09 12:25:51;;;;;;;0.60;0.60;;;8.60;99.90;;;;;;5061321;28;20286;-80
2023/12/09 12:28:18;;;;;;;0.50;0.40;;;8.50;99.90;;;;;;5062349;28;20231;-80
2023/12/09 12:30:45;;;;;;;5.68;1.60;;;8.50;99.90;;;;;;5063427;28;20323;-80
2023/12/09 12:33:12;;;;;;;1.67;1.00;;;8.40;99.90;;;;;;5075749;28;20216;-79
2023/12/09 12:35:38;;;;;;;1.42;1.33;;;8.40;99.90;;;;;;5074240;28;20202;-79
2023/12/09 12:38:06;;;;;;;11.63;1.00;;;8.40;99.90;;;;;;5084784;28;20219;-79
2023/12/09 12:40:35;;;;;;;0.60;0.50;;;8.40;99.90;;;;;;5077686;28;20219;-80
2023/12/09 12:43:04;;;;;;;1.67;0.90;;;8.40;99.90;;;;;;5081548;28;20210;-78
2023/12/09 12:45:33;;;;;;;0.60;0.50;;;8.40;99.90;;;;;;5090763;28;20213;-79
2023/12/09 12:47:59;;;;;;;2.45;1.33;;;8.50;99.90;;;;;;5081303;28;20280;-80
2023/12/09 12:50:26;;;;;;;0.73;0.60;;;8.50;99.90;;;;;;5080355;28;20190;-80
2023/12/09 12:52:53;;;;;;;9.23;1.73;;;8.50;99.90;;;;;;5089118;28;20238;-80
2023/12/09 12:55:21;;;;;;;0.75;0.73;;;8.40;99.90;;;;;;5072778;28;20244;-80
2023/12/09 12:57:50;;;;;;;2.58;1.25;;;8.50;99.90;;;;;;5069057;28;20653;-80